sensor_id;sensor_type;location;lat;lon;timestamp;temperature;humidity
5924;DHT22;2987;50.884;14.818;2024-01-06T00:02:01;5.10;99.90
5924;DHT22;2987;50.884;14.818;2024-01-06T00:04:27;5.40;99.90
5924;DHT22;2987;50.884;14.818;2024-01-06T00:06:54;5.10;99.90
5924;DHT22;2987;50.884;14.818;2024-01-06T00:09:20;5.30;99.90
5924;DHT22;2987;50.884;14.818;2024-01-06T00:11:46;5.40;99.90
5924;DHT22;2987;50.884;14.818;2024-01-06T00:14:12;5.10;99.90
5924;DHT22;2987;50.884;14.818;2024-01-06T00:16:38;5.10;99.90
5924;DHT22;2987;50.884;14.818;2024-01-06T00:19:04;5.20;99.90
5924;DHT22;2987;50.884;14.818;2024-01-06T00:21:29;5.30;99.90
5924;DHT22;2987;50.884;14.818;2024-01-06T00:23:55;4.90;99.90
5924;DHT22;2987;50.884;14.818;2024-01-06T00:26:22;5.10;99.90
5924;DHT22;2987;50.884;14.818;2024-01-06T00:28:48;5.40;99.90
5924;DHT22;2987;50.884;14.818;2024-01-06T00:31:17;5.10;99.90
5924;DHT22;2987;50.884;14.818;2024-01-06T00:33:43;5.20;99.90
5924;DHT22;2987;50.884;14.818;2024-01-06T00:36:09;5.10;99.90
5924;DHT22;2987;50.884;14.818;2024-01-06T00:38:35;5.30;99.90
5924;DHT22;2987;50.884;14.818;2024-01-06T00:41:01;5.10;99.90
5924;DHT22;2987;50.884;14.818;2024-01-06T00:43:27;5.40;99.90
5924;DHT22;2987;50.884;14.818;2024-01-06T00:45:53;5.10;99.90
5924;DHT22;2987;50.884;14.818;2024-01-06T00:48:20;5.20;99.90
5924;DHT22;2987;50.884;14.818;2024-01-06T00:50:46;5.30;99.90
5924;DHT22;2987;50.884;14.818;2024-01-06T00:53:12;5.00;99.90
5924;DHT22;2987;50.884;14.818;2024-01-06T00:55:38;4.90;99.90
5924;DHT22;2987;50.884;14.818;2024-01-06T00:58:04;5.10;99.90
5924;DHT22;2987;50.884;14.818;2024-01-06T01:00:30;4.90;99.90
5924;DHT22;2987;50.884;14.818;2024-01-06T01:02:56;5.10;99.90
5924;DHT22;2987;50.884;14.818;2024-01-06T01:05:22;4.60;99.90
5924;DHT22;2987;50.884;14.818;2024-01-06T01:07:48;4.60;99.90
5924;DHT22;2987;50.884;14.818;2024-01-06T01:10:14;4.60;99.90
5924;DHT22;2987;50.884;14.818;2024-01-06T01:12:40;4.70;99.90
5924;DHT22;2987;50.884;14.818;2024-01-06T01:15:07;4.50;99.90
5924;DHT22;2987;50.884;14.818;2024-01-06T01:17:33;4.50;99.90
5924;DHT22;2987;50.884;14.818;2024-01-06T01:19:59;4.50;99.90
5924;DHT22;2987;50.884;14.818;2024-01-06T01:22:25;4.50;99.90
5924;DHT22;2987;50.884;14.818;2024-01-06T01:24:51;4.50;99.90
5924;DHT22;2987;50.884;14.818;2024-01-06T01:27:17;4.50;99.90
5924;DHT22;2987;50.884;14.818;2024-01-06T01:29:43;4.70;99.90
5924;DHT22;2987;50.884;14.818;2024-01-06T01:32:09;4.70;99.90
5924;DHT22;2987;50.884;14.818;2024-01-06T01:34:35;4.60;99.90
5924;DHT22;2987;50.884;14.818;2024-01-06T01:37:01;4.50;99.90
5924;DHT22;2987;50.884;14.818;2024-01-06T01:39:27;4.60;99.90
5924;DHT22;2987;50.884;14.818;2024-01-06T01:41:53;4.70;99.90
5924;DHT22;2987;50.884;14.818;2024-01-06T01:44:19;4.50;99.90
5924;DHT22;2987;50.884;14.818;2024-01-06T01:46:45;4.50;99.90
5924;DHT22;2987;50.884;14.818;2024-01-06T01:49:12;4.60;99.90
5924;DHT22;2987;50.884;14.818;2024-01-06T01:51:38;4.50;99.90
5924;DHT22;2987;50.884;14.818;2024-01-06T01:54:05;4.50;99.90
5924;DHT22;2987;50.884;14.818;2024-01-06T01:56:32;4.50;99.90
5924;DHT22;2987;50.884;14.818;2024-01-06T01:59:14;4.60;99.90
5924;DHT22;2987;50.884;14.818;2024-01-06T02:01:43;4.30;99.90
5924;DHT22;2987;50.884;14.818;2024-01-06T02:04:09;4.30;99.90
5924;DHT22;2987;50.884;14.818;2024-01-06T02:06:35;4.50;99.90
5924;DHT22;2987;50.884;14.818;2024-01-06T02:09:01;4.30;99.90
5924;DHT22;2987;50.884;14.818;2024-01-06T02:11:27;4.30;99.90
5924;DHT22;2987;50.884;14.818;2024-01-06T02:13:53;4.40;99.90
5924;DHT22;2987;50.884;14.818;2024-01-06T02:16:19;4.20;99.90
5924;DHT22;2987;50.884;14.818;2024-01-06T02:18:45;4.50;99.90
5924;DHT22;2987;50.884;14.818;2024-01-06T02:21:12;4.30;99.90
5924;DHT22;2987;50.884;14.818;2024-01-06T02:23:38;4.30;99.90
5924;DHT22;2987;50.884;14.818;2024-01-06T02:26:04;4.30;99.90
5924;DHT22;2987;50.884;14.818;2024-01-06T02:28:30;4.30;99.90
5924;DHT22;2987;50.884;14.818;2024-01-06T02:30:56;4.30;99.90
5924;DHT22;2987;50.884;14.818;2024-01-06T02:33:22;4.30;99.90
5924;DHT22;2987;50.884;14.818;2024-01-06T02:35:50;4.30;99.90
5924;DHT22;2987;50.884;14.818;2024-01-06T02:38:16;4.20;99.90
5924;DHT22;2987;50.884;14.818;2024-01-06T02:40:42;4.20;99.90
5924;DHT22;2987;50.884;14.818;2024-01-06T02:43:08;4.30;99.90
5924;DHT22;2987;50.884;14.818;2024-01-06T02:45:35;4.20;99.90
5924;DHT22;2987;50.884;14.818;2024-01-06T02:48:01;4.20;99.90
5924;DHT22;2987;50.884;14.818;2024-01-06T02:50:27;4.20;99.90
5924;DHT22;2987;50.884;14.818;2024-01-06T02:52:53;4.20;99.90
5924;DHT22;2987;50.884;14.818;2024-01-06T02:55:19;4.20;99.90
5924;DHT22;2987;50.884;14.818;2024-01-06T02:57:45;4.20;99.90
5924;DHT22;2987;50.884;14.818;2024-01-06T03:00:11;4.20;99.90
5924;DHT22;2987;50.884;14.818;2024-01-06T03:02:38;4.10;99.90
5924;DHT22;2987;50.884;14.818;2024-01-06T03:05:08;4.10;99.90
5924;DHT22;2987;50.884;14.818;2024-01-06T03:07:34;4.40;99.90
5924;DHT22;2987;50.884;14.818;2024-01-06T03:10:00;4.40;99.90
5924;DHT22;2987;50.884;14.818;2024-01-06T03:12:26;4.10;99.90
5924;DHT22;2987;50.884;14.818;2024-01-06T03:14:52;4.40;99.90
5924;DHT22;2987;50.884;14.818;2024-01-06T03:17:18;4.40;99.90
5924;DHT22;2987;50.884;14.818;2024-01-06T03:19:44;4.40;99.90
5924;DHT22;2987;50.884;14.818;2024-01-06T03:22:10;4.40;99.90
5924;DHT22;2987;50.884;14.818;2024-01-06T03:24:36;4.10;99.90
5924;DHT22;2987;50.884;14.818;2024-01-06T03:27:02;4.20;99.90
5924;DHT22;2987;50.884;14.818;2024-01-06T03:29:28;3.90;99.90
5924;DHT22;2987;50.884;14.818;2024-01-06T03:31:54;4.40;99.90
5924;DHT22;2987;50.884;14.818;2024-01-06T03:34:20;3.90;99.90
5924;DHT22;2987;50.884;14.818;2024-01-06T03:36:46;4.20;99.90
5924;DHT22;2987;50.884;14.818;2024-01-06T03:39:12;4.00;99.90
5924;DHT22;2987;50.884;14.818;2024-01-06T03:41:39;4.00;99.90
5924;DHT22;2987;50.884;14.818;2024-01-06T03:44:05;4.00;99.90
5924;DHT22;2987;50.884;14.818;2024-01-06T03:46:35;4.00;99.90
5924;DHT22;2987;50.884;14.818;2024-01-06T03:49:01;4.00;99.90
5924;DHT22;2987;50.884;14.818;2024-01-06T03:51:27;3.90;99.90
5924;DHT22;2987;50.884;14.818;2024-01-06T03:53:53;3.90;99.90
5924;DHT22;2987;50.884;14.818;2024-01-06T03:56:19;4.00;99.90
5924;DHT22;2987;50.884;14.818;2024-01-06T03:58:45;4.00;99.90
5924;DHT22;2987;50.884;14.818;2024-01-06T04:01:11;4.00;99.90
5924;DHT22;2987;50.884;14.818;2024-01-06T04:03:38;4.00;99.90
5924;DHT22;2987;50.884;14.818;2024-01-06T04:06:06;3.90;99.90
5924;DHT22;2987;50.884;14.818;2024-01-06T04:08:32;3.60;99.90
5924;DHT22;2987;50.884;14.818;2024-01-06T04:10:58;4.00;99.90
5924;DHT22;2987;50.884;14.818;2024-01-06T04:13:24;3.80;99.90
5924;DHT22;2987;50.884;14.818;2024-01-06T04:15:51;3.80;99.90
5924;DHT22;2987;50.884;14.818;2024-01-06T04:18:17;3.70;99.90
5924;DHT22;2987;50.884;14.818;2024-01-06T04:20:42;3.70;99.90
5924;DHT22;2987;50.884;14.818;2024-01-06T04:23:08;3.60;99.90
5924;DHT22;2987;50.884;14.818;2024-01-06T04:25:34;3.70;99.90
5924;DHT22;2987;50.884;14.818;2024-01-06T04:28:00;3.70;99.90
5924;DHT22;2987;50.884;14.818;2024-01-06T04:30:26;3.80;99.90
5924;DHT22;2987;50.884;14.818;2024-01-06T04:33:10;3.70;99.90
5924;DHT22;2987;50.884;14.818;2024-01-06T04:35:36;3.80;99.90
5924;DHT22;2987;50.884;14.818;2024-01-06T04:38:03;3.70;99.90
5924;DHT22;2987;50.884;14.818;2024-01-06T04:40:29;3.60;99.90
5924;DHT22;2987;50.884;14.818;2024-01-06T04:42:55;3.80;99.90
5924;DHT22;2987;50.884;14.818;2024-01-06T04:45:21;3.70;99.90
5924;DHT22;2987;50.884;14.818;2024-01-06T04:47:50;3.60;99.90
5924;DHT22;2987;50.884;14.818;2024-01-06T04:50:16;3.70;99.90
5924;DHT22;2987;50.884;14.818;2024-01-06T04:52:43;3.70;99.90
5924;DHT22;2987;50.884;14.818;2024-01-06T04:55:10;3.70;99.90
5924;DHT22;2987;50.884;14.818;2024-01-06T04:57:36;3.70;99.90
5924;DHT22;2987;50.884;14.818;2024-01-06T05:00:03;3.50;99.90
5924;DHT22;2987;50.884;14.818;2024-01-06T05:02:30;3.40;99.90
5924;DHT22;2987;50.884;14.818;2024-01-06T05:04:56;3.40;99.90
5924;DHT22;2987;50.884;14.818;2024-01-06T05:07:22;3.50;99.90
5924;DHT22;2987;50.884;14.818;2024-01-06T05:09:48;3.50;99.90
5924;DHT22;2987;50.884;14.818;2024-01-06T05:12:14;3.50;99.90
5924;DHT22;2987;50.884;14.818;2024-01-06T05:14:40;3.40;99.90
5924;DHT22;2987;50.884;14.818;2024-01-06T05:17:06;3.50;99.90
5924;DHT22;2987;50.884;14.818;2024-01-06T05:19:32;3.20;99.90
5924;DHT22;2987;50.884;14.818;2024-01-06T05:21:58;3.30;99.90
5924;DHT22;2987;50.884;14.818;2024-01-06T05:24:24;3.10;99.90
5924;DHT22;2987;50.884;14.818;2024-01-06T05:26:50;3.10;99.90
5924;DHT22;2987;50.884;14.818;2024-01-06T05:29:16;3.00;99.90
5924;DHT22;2987;50.884;14.818;2024-01-06T05:31:43;2.80;99.90
5924;DHT22;2987;50.884;14.818;2024-01-06T05:34:09;2.80;99.90
5924;DHT22;2987;50.884;14.818;2024-01-06T05:36:35;2.80;99.90
5924;DHT22;2987;50.884;14.818;2024-01-06T05:39:01;2.80;99.90
5924;DHT22;2987;50.884;14.818;2024-01-06T05:41:27;2.80;99.90
5924;DHT22;2987;50.884;14.818;2024-01-06T05:43:53;2.60;99.90
5924;DHT22;2987;50.884;14.818;2024-01-06T05:46:23;2.70;99.90
5924;DHT22;2987;50.884;14.818;2024-01-06T05:48:49;2.70;99.90
5924;DHT22;2987;50.884;14.818;2024-01-06T05:51:15;2.60;99.90
5924;DHT22;2987;50.884;14.818;2024-01-06T05:53:41;2.60;99.90
5924;DHT22;2987;50.884;14.818;2024-01-06T05:56:07;2.70;99.90
5924;DHT22;2987;50.884;14.818;2024-01-06T05:58:35;2.60;99.90
5924;DHT22;2987;50.884;14.818;2024-01-06T06:01:01;2.50;99.90
5924;DHT22;2987;50.884;14.818;2024-01-06T06:03:27;2.40;99.90
5924;DHT22;2987;50.884;14.818;2024-01-06T06:05:53;2.50;99.90
5924;DHT22;2987;50.884;14.818;2024-01-06T06:08:19;2.30;99.90
5924;DHT22;2987;50.884;14.818;2024-01-06T06:10:45;2.40;99.90
5924;DHT22;2987;50.884;14.818;2024-01-06T06:13:38;2.50;99.90
5924;DHT22;2987;50.884;14.818;2024-01-06T06:16:04;2.30;99.90
5924;DHT22;2987;50.884;14.818;2024-01-06T06:18:31;2.40;99.90
5924;DHT22;2987;50.884;14.818;2024-01-06T06:20:59;2.20;99.90
5924;DHT22;2987;50.884;14.818;2024-01-06T06:23:26;2.40;99.90
5924;DHT22;2987;50.884;14.818;2024-01-06T06:25:53;2.40;99.90
5924;DHT22;2987;50.884;14.818;2024-01-06T06:28:19;2.00;99.90
5924;DHT22;2987;50.884;14.818;2024-01-06T06:30:45;2.10;99.90
5924;DHT22;2987;50.884;14.818;2024-01-06T06:33:11;2.10;99.90
5924;DHT22;2987;50.884;14.818;2024-01-06T06:35:37;2.10;99.90
5924;DHT22;2987;50.884;14.818;2024-01-06T06:38:03;2.20;99.90
5924;DHT22;2987;50.884;14.818;2024-01-06T06:40:29;1.90;99.90
5924;DHT22;2987;50.884;14.818;2024-01-06T06:42:55;1.90;99.90
5924;DHT22;2987;50.884;14.818;2024-01-06T06:45:21;2.20;99.90
5924;DHT22;2987;50.884;14.818;2024-01-06T06:47:49;1.90;99.90
5924;DHT22;2987;50.884;14.818;2024-01-06T06:50:16;2.30;99.90
5924;DHT22;2987;50.884;14.818;2024-01-06T06:52:43;2.20;99.90
5924;DHT22;2987;50.884;14.818;2024-01-06T06:55:09;2.20;99.90
5924;DHT22;2987;50.884;14.818;2024-01-06T06:57:36;2.10;99.90
5924;DHT22;2987;50.884;14.818;2024-01-06T07:00:02;2.20;99.90
5924;DHT22;2987;50.884;14.818;2024-01-06T07:02:28;2.00;99.90
5924;DHT22;2987;50.884;14.818;2024-01-06T07:04:54;2.20;99.90
5924;DHT22;2987;50.884;14.818;2024-01-06T07:07:20;2.20;99.90
5924;DHT22;2987;50.884;14.818;2024-01-06T07:09:46;1.90;99.90
5924;DHT22;2987;50.884;14.818;2024-01-06T07:12:12;2.50;99.90
5924;DHT22;2987;50.884;14.818;2024-01-06T07:14:38;2.40;99.90
5924;DHT22;2987;50.884;14.818;2024-01-06T07:17:04;2.20;99.90
5924;DHT22;2987;50.884;14.818;2024-01-06T07:19:32;2.40;99.90
5924;DHT22;2987;50.884;14.818;2024-01-06T07:21:58;2.20;99.90
5924;DHT22;2987;50.884;14.818;2024-01-06T07:24:24;2.50;99.90
5924;DHT22;2987;50.884;14.818;2024-01-06T07:26:50;2.30;99.90
5924;DHT22;2987;50.884;14.818;2024-01-06T07:29:16;2.50;99.90
5924;DHT22;2987;50.884;14.818;2024-01-06T07:31:42;2.40;99.90
5924;DHT22;2987;50.884;14.818;2024-01-06T07:34:08;2.50;99.90
5924;DHT22;2987;50.884;14.818;2024-01-06T07:36:34;2.40;99.90
5924;DHT22;2987;50.884;14.818;2024-01-06T07:38:59;2.20;99.90
5924;DHT22;2987;50.884;14.818;2024-01-06T07:41:25;2.50;99.90
5924;DHT22;2987;50.884;14.818;2024-01-06T07:43:51;2.40;99.90
5924;DHT22;2987;50.884;14.818;2024-01-06T07:46:17;2.40;99.90
5924;DHT22;2987;50.884;14.818;2024-01-06T07:48:43;2.40;99.90
5924;DHT22;2987;50.884;14.818;2024-01-06T07:51:09;2.20;99.90
5924;DHT22;2987;50.884;14.818;2024-01-06T07:53:35;2.10;99.90
5924;DHT22;2987;50.884;14.818;2024-01-06T07:56:01;2.50;99.90
5924;DHT22;2987;50.884;14.818;2024-01-06T07:58:28;2.70;99.90
5924;DHT22;2987;50.884;14.818;2024-01-06T08:00:54;2.50;99.90
5924;DHT22;2987;50.884;14.818;2024-01-06T08:03:20;2.70;99.90
5924;DHT22;2987;50.884;14.818;2024-01-06T08:05:46;2.60;99.90
5924;DHT22;2987;50.884;14.818;2024-01-06T08:08:12;2.60;99.90
5924;DHT22;2987;50.884;14.818;2024-01-06T08:10:40;2.70;99.90
5924;DHT22;2987;50.884;14.818;2024-01-06T08:13:06;2.60;99.90
5924;DHT22;2987;50.884;14.818;2024-01-06T08:15:32;2.70;99.90
5924;DHT22;2987;50.884;14.818;2024-01-06T08:17:59;3.00;99.90
5924;DHT22;2987;50.884;14.818;2024-01-06T08:20:24;2.90;99.90
5924;DHT22;2987;50.884;14.818;2024-01-06T08:22:50;2.90;99.90
5924;DHT22;2987;50.884;14.818;2024-01-06T08:25:17;3.00;99.90
5924;DHT22;2987;50.884;14.818;2024-01-06T08:27:45;2.90;99.90
5924;DHT22;2987;50.884;14.818;2024-01-06T08:30:12;3.20;99.90
5924;DHT22;2987;50.884;14.818;2024-01-06T08:32:38;3.20;99.90
5924;DHT22;2987;50.884;14.818;2024-01-06T08:35:04;3.30;99.90
5924;DHT22;2987;50.884;14.818;2024-01-06T08:37:30;3.10;99.90
5924;DHT22;2987;50.884;14.818;2024-01-06T08:39:56;3.20;99.90
5924;DHT22;2987;50.884;14.818;2024-01-06T08:42:22;3.40;99.90
5924;DHT22;2987;50.884;14.818;2024-01-06T08:44:50;3.40;99.90
5924;DHT22;2987;50.884;14.818;2024-01-06T08:47:16;3.40;99.90
5924;DHT22;2987;50.884;14.818;2024-01-06T08:49:42;3.50;99.90
5924;DHT22;2987;50.884;14.818;2024-01-06T08:52:08;3.60;99.90
5924;DHT22;2987;50.884;14.818;2024-01-06T08:54:34;3.70;99.90
5924;DHT22;2987;50.884;14.818;2024-01-06T08:57:00;3.90;99.90
5924;DHT22;2987;50.884;14.818;2024-01-06T08:59:26;3.80;99.90
5924;DHT22;2987;50.884;14.818;2024-01-06T09:01:52;3.70;99.90
5924;DHT22;2987;50.884;14.818;2024-01-06T09:04:19;3.80;99.90
5924;DHT22;2987;50.884;14.818;2024-01-06T09:06:45;3.90;99.90
5924;DHT22;2987;50.884;14.818;2024-01-06T09:09:12;4.00;99.90
5924;DHT22;2987;50.884;14.818;2024-01-06T09:11:39;4.00;99.90
5924;DHT22;2987;50.884;14.818;2024-01-06T09:14:05;4.10;99.90
5924;DHT22;2987;50.884;14.818;2024-01-06T09:16:31;3.90;99.90
5924;DHT22;2987;50.884;14.818;2024-01-06T09:18:57;4.10;99.90
5924;DHT22;2987;50.884;14.818;2024-01-06T09:21:23;4.30;99.90
5924;DHT22;2987;50.884;14.818;2024-01-06T09:23:49;4.00;99.90
5924;DHT22;2987;50.884;14.818;2024-01-06T09:26:15;4.20;99.90
5924;DHT22;2987;50.884;14.818;2024-01-06T09:28:42;4.50;99.90
5924;DHT22;2987;50.884;14.818;2024-01-06T09:31:07;4.30;99.90
5924;DHT22;2987;50.884;14.818;2024-01-06T09:33:33;4.30;99.90
5924;DHT22;2987;50.884;14.818;2024-01-06T09:36:00;4.30;99.90
5924;DHT22;2987;50.884;14.818;2024-01-06T09:38:26;4.50;99.90
5924;DHT22;2987;50.884;14.818;2024-01-06T09:40:53;4.50;99.90
5924;DHT22;2987;50.884;14.818;2024-01-06T09:43:19;4.50;99.90
5924;DHT22;2987;50.884;14.818;2024-01-06T09:45:52;4.50;99.90
5924;DHT22;2987;50.884;14.818;2024-01-06T09:48:22;4.50;99.90
5924;DHT22;2987;50.884;14.818;2024-01-06T09:50:56;4.80;99.90
5924;DHT22;2987;50.884;14.818;2024-01-06T09:53:26;4.70;99.90
5924;DHT22;2987;50.884;14.818;2024-01-06T09:55:56;4.50;99.90
5924;DHT22;2987;50.884;14.818;2024-01-06T09:58:22;4.60;99.90
5924;DHT22;2987;50.884;14.818;2024-01-06T10:00:48;4.60;99.90
5924;DHT22;2987;50.884;14.818;2024-01-06T10:03:15;4.80;99.90
5924;DHT22;2987;50.884;14.818;2024-01-06T10:05:41;4.80;99.90
5924;DHT22;2987;50.884;14.818;2024-01-06T10:08:06;4.80;99.90
5924;DHT22;2987;50.884;14.818;2024-01-06T10:10:35;4.80;99.90
5924;DHT22;2987;50.884;14.818;2024-01-06T10:13:01;4.90;99.90
5924;DHT22;2987;50.884;14.818;2024-01-06T10:15:27;4.90;99.90
5924;DHT22;2987;50.884;14.818;2024-01-06T10:17:54;5.30;99.90
5924;DHT22;2987;50.884;14.818;2024-01-06T10:20:21;5.20;99.90
5924;DHT22;2987;50.884;14.818;2024-01-06T10:22:47;5.30;99.90
5924;DHT22;2987;50.884;14.818;2024-01-06T10:25:13;5.40;99.90
5924;DHT22;2987;50.884;14.818;2024-01-06T10:27:41;5.60;99.90
5924;DHT22;2987;50.884;14.818;2024-01-06T10:30:08;5.40;99.90
5924;DHT22;2987;50.884;14.818;2024-01-06T10:32:35;5.70;99.90
5924;DHT22;2987;50.884;14.818;2024-01-06T10:35:05;5.50;99.90
5924;DHT22;2987;50.884;14.818;2024-01-06T10:37:35;5.60;99.90
5924;DHT22;2987;50.884;14.818;2024-01-06T10:40:11;5.70;99.90
5924;DHT22;2987;50.884;14.818;2024-01-06T10:42:39;5.70;99.90
5924;DHT22;2987;50.884;14.818;2024-01-06T10:45:07;5.40;99.90
5924;DHT22;2987;50.884;14.818;2024-01-06T10:47:37;5.70;99.90
5924;DHT22;2987;50.884;14.818;2024-01-06T10:50:04;5.50;99.90
5924;DHT22;2987;50.884;14.818;2024-01-06T10:52:30;5.50;99.90
5924;DHT22;2987;50.884;14.818;2024-01-06T10:54:58;5.70;99.90
5924;DHT22;2987;50.884;14.818;2024-01-06T10:57:24;5.50;99.90
5924;DHT22;2987;50.884;14.818;2024-01-06T10:59:51;5.40;99.90
5924;DHT22;2987;50.884;14.818;2024-01-06T11:02:18;5.50;99.90
5924;DHT22;2987;50.884;14.818;2024-01-06T11:04:47;5.60;99.90
5924;DHT22;2987;50.884;14.818;2024-01-06T11:07:17;5.60;99.90
5924;DHT22;2987;50.884;14.818;2024-01-06T11:10:08;5.40;99.90
5924;DHT22;2987;50.884;14.818;2024-01-06T11:12:35;5.40;99.90
5924;DHT22;2987;50.884;14.818;2024-01-06T11:15:01;5.40;99.90
5924;DHT22;2987;50.884;14.818;2024-01-06T11:17:49;5.20;99.90
5924;DHT22;2987;50.884;14.818;2024-01-06T11:20:20;5.10;99.90
5924;DHT22;2987;50.884;14.818;2024-01-06T11:22:49;5.50;99.90
5924;DHT22;2987;50.884;14.818;2024-01-06T11:25:18;5.50;99.90
5924;DHT22;2987;50.884;14.818;2024-01-06T11:27:49;5.20;99.90
5924;DHT22;2987;50.884;14.818;2024-01-06T11:30:25;5.40;99.90
5924;DHT22;2987;50.884;14.818;2024-01-06T11:32:53;5.20;99.90
5924;DHT22;2987;50.884;14.818;2024-01-06T11:35:20;5.20;99.90
5924;DHT22;2987;50.884;14.818;2024-01-06T11:43:03;5.30;99.90
5924;DHT22;2987;50.884;14.818;2024-01-06T11:45:31;5.10;99.90
5924;DHT22;2987;50.884;14.818;2024-01-06T11:48:00;5.20;99.90
5924;DHT22;2987;50.884;14.818;2024-01-06T11:50:27;5.10;99.90
5924;DHT22;2987;50.884;14.818;2024-01-06T11:52:54;5.20;99.90
5924;DHT22;2987;50.884;14.818;2024-01-06T11:55:21;5.10;99.90
5924;DHT22;2987;50.884;14.818;2024-01-06T11:57:47;5.10;99.90
5924;DHT22;2987;50.884;14.818;2024-01-06T12:00:17;5.20;99.90
5924;DHT22;2987;50.884;14.818;2024-01-06T12:02:43;5.10;99.90
5924;DHT22;2987;50.884;14.818;2024-01-06T12:05:17;5.30;99.90
5924;DHT22;2987;50.884;14.818;2024-01-06T12:07:53;4.90;99.90
5924;DHT22;2987;50.884;14.818;2024-01-06T12:10:21;4.80;99.90
5924;DHT22;2987;50.884;14.818;2024-01-06T12:13:02;4.80;99.90
5924;DHT22;2987;50.884;14.818;2024-01-06T12:15:30;4.80;99.90
5924;DHT22;2987;50.884;14.818;2024-01-06T12:17:57;4.80;99.90
5924;DHT22;2987;50.884;14.818;2024-01-06T12:20:25;5.00;99.90
5924;DHT22;2987;50.884;14.818;2024-01-06T12:22:52;4.80;99.90
5924;DHT22;2987;50.884;14.818;2024-01-06T12:25:18;5.00;99.90
5924;DHT22;2987;50.884;14.818;2024-01-06T12:27:44;4.70;99.90
5924;DHT22;2987;50.884;14.818;2024-01-06T12:30:29;5.00;99.90
5924;DHT22;2987;50.884;14.818;2024-01-06T12:32:56;4.90;99.90
5924;DHT22;2987;50.884;14.818;2024-01-06T12:35:22;4.80;99.90
5924;DHT22;2987;50.884;14.818;2024-01-06T12:37:48;5.00;99.90
5924;DHT22;2987;50.884;14.818;2024-01-06T12:40:16;4.60;99.90
5924;DHT22;2987;50.884;14.818;2024-01-06T12:42:44;4.80;99.90
5924;DHT22;2987;50.884;14.818;2024-01-06T12:45:11;5.00;99.90
5924;DHT22;2987;50.884;14.818;2024-01-06T12:47:37;4.50;99.90
5924;DHT22;2987;50.884;14.818;2024-01-06T12:50:04;4.50;99.90
5924;DHT22;2987;50.884;14.818;2024-01-06T12:52:30;4.60;99.90
5924;DHT22;2987;50.884;14.818;2024-01-06T12:54:56;4.80;99.90
5924;DHT22;2987;50.884;14.818;2024-01-06T12:57:22;4.70;99.90
5924;DHT22;2987;50.884;14.818;2024-01-06T12:59:48;4.60;99.90
5924;DHT22;2987;50.884;14.818;2024-01-06T13:02:14;4.50;99.90
5924;DHT22;2987;50.884;14.818;2024-01-06T13:04:39;4.50;99.90
5924;DHT22;2987;50.884;14.818;2024-01-06T13:07:06;4.70;99.90
5924;DHT22;2987;50.884;14.818;2024-01-06T13:09:32;4.50;99.90
5924;DHT22;2987;50.884;14.818;2024-01-06T13:11:59;4.30;99.90
5924;DHT22;2987;50.884;14.818;2024-01-06T13:14:29;4.20;99.90
5924;DHT22;2987;50.884;14.818;2024-01-06T13:16:56;4.10;99.90
5924;DHT22;2987;50.884;14.818;2024-01-06T13:19:22;4.40;99.90
5924;DHT22;2987;50.884;14.818;2024-01-06T13:21:49;3.90;99.90
5924;DHT22;2987;50.884;14.818;2024-01-06T13:24:14;4.30;99.90
5924;DHT22;2987;50.884;14.818;2024-01-06T13:26:41;4.20;99.90
5924;DHT22;2987;50.884;14.818;2024-01-06T13:29:06;4.00;99.90
5924;DHT22;2987;50.884;14.818;2024-01-06T13:31:33;4.00;99.90
5924;DHT22;2987;50.884;14.818;2024-01-06T13:33:59;4.00;99.90
5924;DHT22;2987;50.884;14.818;2024-01-06T13:36:25;4.00;99.90
5924;DHT22;2987;50.884;14.818;2024-01-06T13:38:50;3.90;99.90
5924;DHT22;2987;50.884;14.818;2024-01-06T13:41:16;3.60;99.90
5924;DHT22;2987;50.884;14.818;2024-01-06T13:43:42;3.70;99.90
5924;DHT22;2987;50.884;14.818;2024-01-06T13:46:10;3.90;99.90
5924;DHT22;2987;50.884;14.818;2024-01-06T13:48:36;3.60;99.90
5924;DHT22;2987;50.884;14.818;2024-01-06T13:51:02;3.90;99.90
5924;DHT22;2987;50.884;14.818;2024-01-06T13:53:29;3.60;99.90
5924;DHT22;2987;50.884;14.818;2024-01-06T13:55:55;3.80;99.90
5924;DHT22;2987;50.884;14.818;2024-01-06T13:58:21;3.80;99.90
5924;DHT22;2987;50.884;14.818;2024-01-06T14:00:47;3.70;99.90
5924;DHT22;2987;50.884;14.818;2024-01-06T14:03:14;3.70;99.90
5924;DHT22;2987;50.884;14.818;2024-01-06T14:05:40;3.70;99.90
5924;DHT22;2987;50.884;14.818;2024-01-06T14:08:06;3.80;99.90
5924;DHT22;2987;50.884;14.818;2024-01-06T14:10:32;3.70;99.90
5924;DHT22;2987;50.884;14.818;2024-01-06T14:12:58;3.70;99.90
5924;DHT22;2987;50.884;14.818;2024-01-06T14:15:24;3.60;99.90
5924;DHT22;2987;50.884;14.818;2024-01-06T14:17:52;3.70;99.90
5924;DHT22;2987;50.884;14.818;2024-01-06T14:20:18;3.80;99.90
5924;DHT22;2987;50.884;14.818;2024-01-06T14:22:45;3.30;99.90
5924;DHT22;2987;50.884;14.818;2024-01-06T14:25:15;3.90;99.90
5924;DHT22;2987;50.884;14.818;2024-01-06T14:27:45;3.50;99.90
5924;DHT22;2987;50.884;14.818;2024-01-06T14:30:11;3.40;99.90
5924;DHT22;2987;50.884;14.818;2024-01-06T14:32:37;3.40;99.90
5924;DHT22;2987;50.884;14.818;2024-01-06T14:35:05;3.40;99.90
5924;DHT22;2987;50.884;14.818;2024-01-06T14:37:37;3.40;99.90
5924;DHT22;2987;50.884;14.818;2024-01-06T14:40:06;3.50;99.90
5924;DHT22;2987;50.884;14.818;2024-01-06T14:42:32;3.50;99.90
5924;DHT22;2987;50.884;14.818;2024-01-06T14:45:02;3.40;99.90
5924;DHT22;2987;50.884;14.818;2024-01-06T14:47:28;3.40;99.90
5924;DHT22;2987;50.884;14.818;2024-01-06T14:49:54;3.50;99.90
5924;DHT22;2987;50.884;14.818;2024-01-06T14:52:20;3.20;99.90
5924;DHT22;2987;50.884;14.818;2024-01-06T14:54:46;3.50;99.90
5924;DHT22;2987;50.884;14.818;2024-01-06T14:57:14;3.10;99.90
5924;DHT22;2987;50.884;14.818;2024-01-06T14:59:40;3.20;99.90
5924;DHT22;2987;50.884;14.818;2024-01-06T15:02:07;3.30;99.90
5924;DHT22;2987;50.884;14.818;2024-01-06T15:04:34;3.00;99.90
5924;DHT22;2987;50.884;14.818;2024-01-06T15:07:02;3.00;99.90
5924;DHT22;2987;50.884;14.818;2024-01-06T15:09:28;3.20;99.90
5924;DHT22;2987;50.884;14.818;2024-01-06T15:11:54;3.20;99.90
5924;DHT22;2987;50.884;14.818;2024-01-06T15:14:20;3.00;99.90
5924;DHT22;2987;50.884;14.818;2024-01-06T15:16:46;3.10;99.90
5924;DHT22;2987;50.884;14.818;2024-01-06T15:19:12;3.20;99.90
5924;DHT22;2987;50.884;14.818;2024-01-06T15:21:38;2.80;99.90
5924;DHT22;2987;50.884;14.818;2024-01-06T15:24:04;2.80;99.90
5924;DHT22;2987;50.884;14.818;2024-01-06T15:26:30;2.80;99.90
5924;DHT22;2987;50.884;14.818;2024-01-06T15:28:56;2.90;99.90
5924;DHT22;2987;50.884;14.818;2024-01-06T15:31:26;2.90;99.90
5924;DHT22;2987;50.884;14.818;2024-01-06T15:33:53;2.90;99.90
5924;DHT22;2987;50.884;14.818;2024-01-06T15:36:19;3.00;99.90
5924;DHT22;2987;50.884;14.818;2024-01-06T15:38:45;2.80;99.90
5924;DHT22;2987;50.884;14.818;2024-01-06T15:41:11;2.90;99.90
5924;DHT22;2987;50.884;14.818;2024-01-06T15:43:37;3.00;99.90
5924;DHT22;2987;50.884;14.818;2024-01-06T15:46:06;2.80;99.90
5924;DHT22;2987;50.884;14.818;2024-01-06T15:48:32;2.90;99.90
5924;DHT22;2987;50.884;14.818;2024-01-06T15:50:59;2.80;99.90
5924;DHT22;2987;50.884;14.818;2024-01-06T15:53:25;2.70;99.90
5924;DHT22;2987;50.884;14.818;2024-01-06T15:55:51;2.60;99.90
5924;DHT22;2987;50.884;14.818;2024-01-06T15:58:18;3.00;99.90
5924;DHT22;2987;50.884;14.818;2024-01-06T16:00:44;2.80;99.90
5924;DHT22;2987;50.884;14.818;2024-01-06T16:03:10;2.90;99.90
5924;DHT22;2987;50.884;14.818;2024-01-06T16:05:36;2.90;99.90